LFBC 101330Z AUTO 17006KT CAVOK 14/07 Q1025 NOSIG
LFBD 101330Z AUTO 17006KT 140V210 CAVOK 13/05 Q1025 NOSIG